sensor_id;sensor_type;location;lat;lon;timestamp;pressure;altitude;pressure_sealevel;temperature;humidity
24486;BME280;13449;49.374;8.584;2023-07-13T00:00:26;100370.84;;;18.82;58.19
24486;BME280;13449;49.374;8.584;2023-07-13T00:02:52;100370.53;;;18.77;59.57
24486;BME280;13449;49.374;8.584;2023-07-13T00:05:22;100382.06;;;18.70;60.60
24486;BME280;13449;49.374;8.584;2023-07-13T00:07:50;100378.94;;;18.66;60.27
24486;BME280;13449;49.374;8.584;2023-07-13T00:10:17;100390.22;;;18.60;62.02
24486;BME280;13449;49.374;8.584;2023-07-13T00:12:44;100388.91;;;18.56;61.03
24486;BME280;13449;49.374;8.584;2023-07-13T00:15:20;100400.94;;;18.52;61.42
24486;BME280;13449;49.374;8.584;2023-07-13T00:17:54;100397.78;;;18.48;60.30
24486;BME280;13449;49.374;8.584;2023-07-13T00:20:22;100404.25;;;18.46;61.07
24486;BME280;13449;49.374;8.584;2023-07-13T00:22:49;100393.94;;;18.43;60.30
24486;BME280;13449;49.374;8.584;2023-07-13T00:25:22;100401.78;;;18.44;60.80
24486;BME280;13449;49.374;8.584;2023-07-13T00:27:50;100393.28;;;18.41;59.02
24486;BME280;13449;49.374;8.584;2023-07-13T00:30:17;100387.47;;;18.37;59.66
24486;BME280;13449;49.374;8.584;2023-07-13T00:32:46;100399.47;;;18.33;61.07
24486;BME280;13449;49.374;8.584;2023-07-13T00:35:26;100385.97;;;18.35;59.29
24486;BME280;13449;49.374;8.584;2023-07-13T00:37:52;100386.63;;;18.29;61.27
24486;BME280;13449;49.374;8.584;2023-07-13T00:40:18;100394.81;;;18.27;61.28
24486;BME280;13449;49.374;8.584;2023-07-13T00:42:45;100387.81;;;18.34;59.73
24486;BME280;13449;49.374;8.584;2023-07-13T00:47:39;100388.94;;;18.40;57.21
24486;BME280;13449;49.374;8.584;2023-07-13T00:50:12;100393.59;;;18.46;60.06
24486;BME280;13449;49.374;8.584;2023-07-13T00:52:44;100389.44;;;18.43;58.45
24486;BME280;13449;49.374;8.584;2023-07-13T00:55:12;100389.94;;;18.47;57.59
24486;BME280;13449;49.374;8.584;2023-07-13T00:57:40;100399.94;;;18.45;59.48
24486;BME280;13449;49.374;8.584;2023-07-13T01:00:08;100392.94;;;18.44;58.43
24486;BME280;13449;49.374;8.584;2023-07-13T01:02:40;100398.97;;;18.38;59.22
24486;BME280;13449;49.374;8.584;2023-07-13T01:05:13;100392.78;;;18.29;59.92
24486;BME280;13449;49.374;8.584;2023-07-13T01:07:43;100400.66;;;18.31;60.11
24486;BME280;13449;49.374;8.584;2023-07-13T01:10:13;100393.81;;;18.20;59.56
24486;BME280;13449;49.374;8.584;2023-07-13T01:12:40;100395.00;;;18.17;59.28
24486;BME280;13449;49.374;8.584;2023-07-13T01:15:43;100390.50;;;18.02;59.56
24486;BME280;13449;49.374;8.584;2023-07-13T01:18:12;100393.34;;;18.00;58.31
24486;BME280;13449;49.374;8.584;2023-07-13T01:20:40;100399.31;;;17.94;59.28
24486;BME280;13449;49.374;8.584;2023-07-13T01:23:10;100414.16;;;17.88;60.48
24486;BME280;13449;49.374;8.584;2023-07-13T01:25:39;100409.97;;;17.78;62.45
24486;BME280;13449;49.374;8.584;2023-07-13T01:28:07;100405.31;;;17.72;60.32
24486;BME280;13449;49.374;8.584;2023-07-13T01:30:38;100401.16;;;17.69;61.48
24486;BME280;13449;49.374;8.584;2023-07-13T01:33:09;100402.28;;;17.58;61.76
24486;BME280;13449;49.374;8.584;2023-07-13T01:35:36;100410.72;;;17.46;62.80
24486;BME280;13449;49.374;8.584;2023-07-13T01:38:04;100420.03;;;17.42;62.75
24486;BME280;13449;49.374;8.584;2023-07-13T01:40:31;100411.69;;;17.28;63.19
24486;BME280;13449;49.374;8.584;2023-07-13T01:42:58;100419.78;;;17.19;63.25
24486;BME280;13449;49.374;8.584;2023-07-13T01:45:25;100419.94;;;17.09;63.82
24486;BME280;13449;49.374;8.584;2023-07-13T01:47:52;100422.09;;;17.05;64.65
24486;BME280;13449;49.374;8.584;2023-07-13T01:50:21;100425.38;;;16.99;65.30
24486;BME280;13449;49.374;8.584;2023-07-13T01:52:47;100436.47;;;16.87;65.67
24486;BME280;13449;49.374;8.584;2023-07-13T01:55:14;100428.97;;;16.82;65.46
24486;BME280;13449;49.374;8.584;2023-07-13T01:57:40;100446.91;;;16.80;67.21
24486;BME280;13449;49.374;8.584;2023-07-13T02:00:09;100443.56;;;16.78;65.71
24486;BME280;13449;49.374;8.584;2023-07-13T02:02:36;100449.66;;;16.70;67.83
24486;BME280;13449;49.374;8.584;2023-07-13T02:05:03;100450.13;;;16.66;66.91
24486;BME280;13449;49.374;8.584;2023-07-13T02:07:29;100450.44;;;16.63;66.60
24486;BME280;13449;49.374;8.584;2023-07-13T02:09:56;100449.09;;;16.59;66.68
24486;BME280;13449;49.374;8.584;2023-07-13T02:12:22;100450.69;;;16.52;67.20
24486;BME280;13449;49.374;8.584;2023-07-13T02:14:49;100458.97;;;16.48;69.24
24486;BME280;13449;49.374;8.584;2023-07-13T02:17:17;100448.34;;;16.48;68.27
24486;BME280;13449;49.374;8.584;2023-07-13T02:19:44;100452.84;;;16.48;67.68
24486;BME280;13449;49.374;8.584;2023-07-13T02:22:10;100447.31;;;16.41;67.22
24486;BME280;13449;49.374;8.584;2023-07-13T02:24:37;100447.91;;;16.35;68.93
24486;BME280;13449;49.374;8.584;2023-07-13T02:27:04;100446.25;;;16.34;68.67
24486;BME280;13449;49.374;8.584;2023-07-13T02:29:31;100449.38;;;16.30;69.12
24486;BME280;13449;49.374;8.584;2023-07-13T02:31:57;100442.41;;;16.29;67.91
24486;BME280;13449;49.374;8.584;2023-07-13T02:34:26;100433.94;;;16.33;67.20
24486;BME280;13449;49.374;8.584;2023-07-13T02:36:55;100439.78;;;16.37;66.70
24486;BME280;13449;49.374;8.584;2023-07-13T02:39:24;100444.78;;;16.40;67.28
24486;BME280;13449;49.374;8.584;2023-07-13T02:41:50;100443.94;;;16.39;66.63
24486;BME280;13449;49.374;8.584;2023-07-13T02:44:17;100458.56;;;16.35;67.87
24486;BME280;13449;49.374;8.584;2023-07-13T02:46:46;100452.72;;;16.32;67.29
24486;BME280;13449;49.374;8.584;2023-07-13T02:49:12;100452.19;;;16.28;67.75
24486;BME280;13449;49.374;8.584;2023-07-13T02:51:41;100455.00;;;16.27;66.73
24486;BME280;13449;49.374;8.584;2023-07-13T02:54:10;100461.75;;;16.21;68.50
24486;BME280;13449;49.374;8.584;2023-07-13T02:56:42;100461.41;;;16.16;67.77
24486;BME280;13449;49.374;8.584;2023-07-13T02:59:11;100457.75;;;16.17;67.14
24486;BME280;13449;49.374;8.584;2023-07-13T03:01:38;100458.50;;;16.09;68.04
24486;BME280;13449;49.374;8.584;2023-07-13T03:04:05;100463.53;;;16.12;68.96
24486;BME280;13449;49.374;8.584;2023-07-13T03:06:32;100464.69;;;16.10;69.22
24486;BME280;13449;49.374;8.584;2023-07-13T03:08:59;100459.94;;;16.04;67.95
24486;BME280;13449;49.374;8.584;2023-07-13T03:11:28;100461.63;;;16.05;68.06
24486;BME280;13449;49.374;8.584;2023-07-13T03:13:57;100467.25;;;16.02;68.70
24486;BME280;13449;49.374;8.584;2023-07-13T03:16:24;100469.22;;;16.00;68.45
24486;BME280;13449;49.374;8.584;2023-07-13T03:18:53;100463.91;;;16.00;69.27
24486;BME280;13449;49.374;8.584;2023-07-13T03:21:19;100464.19;;;16.32;68.10
24486;BME280;13449;49.374;8.584;2023-07-13T03:23:46;100461.16;;;16.09;67.63
24486;BME280;13449;49.374;8.584;2023-07-13T03:26:16;100457.59;;;16.01;68.10
24486;BME280;13449;49.374;8.584;2023-07-13T03:28:47;100459.50;;;15.91;68.20
24486;BME280;13449;49.374;8.584;2023-07-13T03:31:17;100465.13;;;15.87;68.78
24486;BME280;13449;49.374;8.584;2023-07-13T03:33:50;100474.97;;;15.77;70.25
24486;BME280;13449;49.374;8.584;2023-07-13T03:36:19;100466.94;;;15.69;70.09
24486;BME280;13449;49.374;8.584;2023-07-13T03:38:51;100483.19;;;15.66;71.34
24486;BME280;13449;49.374;8.584;2023-07-13T03:41:21;100476.22;;;15.55;70.47
24486;BME280;13449;49.374;8.584;2023-07-13T03:43:49;100478.72;;;15.57;70.90
24486;BME280;13449;49.374;8.584;2023-07-13T03:46:20;100482.13;;;15.49;70.78
24486;BME280;13449;49.374;8.584;2023-07-13T03:48:47;100491.91;;;15.49;70.91
24486;BME280;13449;49.374;8.584;2023-07-13T03:51:15;100498.88;;;15.50;71.18
24486;BME280;13449;49.374;8.584;2023-07-13T03:53:44;100496.91;;;15.52;71.40
24486;BME280;13449;49.374;8.584;2023-07-13T03:56:12;100498.59;;;15.53;72.14
24486;BME280;13449;49.374;8.584;2023-07-13T03:58:42;100495.25;;;15.51;71.30
24486;BME280;13449;49.374;8.584;2023-07-13T04:01:11;100493.28;;;15.53;71.54
24486;BME280;13449;49.374;8.584;2023-07-13T04:03:39;100495.94;;;15.53;71.34
24486;BME280;13449;49.374;8.584;2023-07-13T04:06:08;100504.72;;;15.53;72.31
24486;BME280;13449;49.374;8.584;2023-07-13T04:08:43;100502.06;;;15.53;72.79
24486;BME280;13449;49.374;8.584;2023-07-13T04:11:12;100501.94;;;15.55;72.09
24486;BME280;13449;49.374;8.584;2023-07-13T04:13:39;100499.13;;;15.56;72.49
24486;BME280;13449;49.374;8.584;2023-07-13T04:16:05;100508.06;;;15.55;72.88
24486;BME280;13449;49.374;8.584;2023-07-13T04:18:32;100503.59;;;15.56;72.75
24486;BME280;13449;49.374;8.584;2023-07-13T04:20:58;100509.91;;;15.55;74.55
24486;BME280;13449;49.374;8.584;2023-07-13T04:23:25;100514.22;;;15.56;74.52
24486;BME280;13449;49.374;8.584;2023-07-13T04:25:52;100521.50;;;15.54;73.89
24486;BME280;13449;49.374;8.584;2023-07-13T04:28:23;100517.56;;;15.58;73.31
24486;BME280;13449;49.374;8.584;2023-07-13T04:30:50;100525.97;;;15.53;74.33
24486;BME280;13449;49.374;8.584;2023-07-13T04:33:19;100522.88;;;15.58;72.49
24486;BME280;13449;49.374;8.584;2023-07-13T04:35:56;100524.28;;;15.62;72.51
24486;BME280;13449;49.374;8.584;2023-07-13T04:38:28;100528.63;;;15.63;73.08
24486;BME280;13449;49.374;8.584;2023-07-13T04:41:00;100529.97;;;15.67;72.77
24486;BME280;13449;49.374;8.584;2023-07-13T04:43:28;100521.72;;;15.70;72.71
24486;BME280;13449;49.374;8.584;2023-07-13T04:45:57;100516.78;;;15.75;72.45
24486;BME280;13449;49.374;8.584;2023-07-13T04:48:30;100524.84;;;15.83;73.24
24486;BME280;13449;49.374;8.584;2023-07-13T04:50:58;100524.91;;;15.92;71.50
24486;BME280;13449;49.374;8.584;2023-07-13T04:53:28;100528.34;;;16.02;71.16
24486;BME280;13449;49.374;8.584;2023-07-13T04:55:56;100524.81;;;16.11;70.66
24486;BME280;13449;49.374;8.584;2023-07-13T04:58:25;100522.22;;;16.19;70.38
24486;BME280;13449;49.374;8.584;2023-07-13T05:00:52;100523.28;;;16.26;69.93
24486;BME280;13449;49.374;8.584;2023-07-13T05:03:18;100517.34;;;16.32;70.58
24486;BME280;13449;49.374;8.584;2023-07-13T05:05:55;100515.88;;;16.38;69.56
24486;BME280;13449;49.374;8.584;2023-07-13T05:08:22;100514.47;;;16.43;70.02
24486;BME280;13449;49.374;8.584;2023-07-13T05:10:48;100510.19;;;16.51;68.50
24486;BME280;13449;49.374;8.584;2023-07-13T05:13:14;100521.56;;;16.61;69.16
24486;BME280;13449;49.374;8.584;2023-07-13T05:15:41;100512.50;;;16.71;68.76
24486;BME280;13449;49.374;8.584;2023-07-13T05:18:07;100514.31;;;16.89;65.90
24486;BME280;13449;49.374;8.584;2023-07-13T05:20:36;100512.25;;;17.09;65.31
24486;BME280;13449;49.374;8.584;2023-07-13T05:23:03;100510.69;;;17.24;65.87
24486;BME280;13449;49.374;8.584;2023-07-13T05:25:29;100516.34;;;17.29;64.84
24486;BME280;13449;49.374;8.584;2023-07-13T05:27:56;100504.94;;;17.45;63.51
24486;BME280;13449;49.374;8.584;2023-07-13T05:30:22;100523.41;;;17.46;65.37
24486;BME280;13449;49.374;8.584;2023-07-13T05:32:51;100518.78;;;17.56;63.75
24486;BME280;13449;49.374;8.584;2023-07-13T05:35:18;100526.78;;;17.64;64.30
24486;BME280;13449;49.374;8.584;2023-07-13T05:37:44;100539.53;;;17.71;66.34
24486;BME280;13449;49.374;8.584;2023-07-13T05:40:11;100534.53;;;17.76;65.69
24486;BME280;13449;49.374;8.584;2023-07-13T05:42:37;100532.91;;;17.91;63.73
24486;BME280;13449;49.374;8.584;2023-07-13T05:45:06;100526.78;;;18.07;62.99
24486;BME280;13449;49.374;8.584;2023-07-13T05:47:35;100532.13;;;18.23;62.61
24486;BME280;13449;49.374;8.584;2023-07-13T05:50:02;100527.28;;;18.43;62.60
24486;BME280;13449;49.374;8.584;2023-07-13T05:52:31;100539.13;;;18.56;63.18
24486;BME280;13449;49.374;8.584;2023-07-13T05:55:00;100517.16;;;18.46;57.84
24486;BME280;13449;49.374;8.584;2023-07-13T05:57:27;100534.63;;;18.57;59.56
24486;BME280;13449;49.374;8.584;2023-07-13T05:59:53;100543.66;;;18.48;60.62
24486;BME280;13449;49.374;8.584;2023-07-13T06:02:20;100559.00;;;18.62;63.67
24486;BME280;13449;49.374;8.584;2023-07-13T06:04:47;100561.31;;;18.57;63.27
24486;BME280;13449;49.374;8.584;2023-07-13T06:07:16;100562.31;;;18.48;64.34
24486;BME280;13449;49.374;8.584;2023-07-13T06:09:43;100565.66;;;18.50;62.68
24486;BME280;13449;49.374;8.584;2023-07-13T06:12:09;100555.47;;;18.53;60.36
24486;BME280;13449;49.374;8.584;2023-07-13T06:14:36;100557.63;;;18.58;62.08
24486;BME280;13449;49.374;8.584;2023-07-13T06:17:08;100570.34;;;18.72;62.84
24486;BME280;13449;49.374;8.584;2023-07-13T06:19:35;100575.03;;;18.70;62.90
24486;BME280;13449;49.374;8.584;2023-07-13T06:22:01;100576.34;;;18.82;62.69
24486;BME280;13449;49.374;8.584;2023-07-13T06:24:28;100570.66;;;19.02;60.03
24486;BME280;13449;49.374;8.584;2023-07-13T06:26:56;100574.63;;;19.14;60.30
24486;BME280;13449;49.374;8.584;2023-07-13T06:29:23;100569.91;;;19.24;60.40
24486;BME280;13449;49.374;8.584;2023-07-13T06:31:49;100578.06;;;19.39;60.14
24486;BME280;13449;49.374;8.584;2023-07-13T06:34:16;100561.19;;;19.47;56.61
24486;BME280;13449;49.374;8.584;2023-07-13T06:36:43;100570.00;;;19.63;57.52
24486;BME280;13449;49.374;8.584;2023-07-13T06:39:10;100574.03;;;19.59;57.56
24486;BME280;13449;49.374;8.584;2023-07-13T06:41:36;100589.84;;;19.69;59.70
24486;BME280;13449;49.374;8.584;2023-07-13T06:44:05;100585.06;;;19.87;57.03
24486;BME280;13449;49.374;8.584;2023-07-13T06:46:34;100589.66;;;20.10;59.58
24486;BME280;13449;49.374;8.584;2023-07-13T06:49:01;100589.59;;;20.18;56.76
24486;BME280;13449;49.374;8.584;2023-07-13T06:51:30;100593.63;;;20.14;56.98
24486;BME280;13449;49.374;8.584;2023-07-13T06:53:57;100588.53;;;20.27;56.46
24486;BME280;13449;49.374;8.584;2023-07-13T06:56:23;100591.50;;;20.32;56.97
24486;BME280;13449;49.374;8.584;2023-07-13T06:58:52;100586.03;;;20.56;56.57
24486;BME280;13449;49.374;8.584;2023-07-13T07:01:21;100590.28;;;20.66;57.00
24486;BME280;13449;49.374;8.584;2023-07-13T07:03:47;100587.41;;;20.90;57.56
24486;BME280;13449;49.374;8.584;2023-07-13T07:06:20;100574.94;;;20.97;54.25
24486;BME280;13449;49.374;8.584;2023-07-13T07:08:48;100584.63;;;20.98;55.11
24486;BME280;13449;49.374;8.584;2023-07-13T07:11:18;100580.81;;;21.15;54.88
24486;BME280;13449;49.374;8.584;2023-07-13T07:13:44;100586.06;;;21.23;54.19
24486;BME280;13449;49.374;8.584;2023-07-13T07:16:11;100580.66;;;21.32;53.93
24486;BME280;13449;49.374;8.584;2023-07-13T07:18:38;100569.16;;;21.23;50.62
24486;BME280;13449;49.374;8.584;2023-07-13T07:21:04;100569.72;;;21.18;50.21
24486;BME280;13449;49.374;8.584;2023-07-13T07:23:31;100573.44;;;21.32;50.74
24486;BME280;13449;49.374;8.584;2023-07-13T07:25:58;100583.03;;;21.41;50.89
24486;BME280;13449;49.374;8.584;2023-07-13T07:28:24;100560.25;;;21.31;47.33
24486;BME280;13449;49.374;8.584;2023-07-13T07:30:55;100569.84;;;21.40;48.63
24486;BME280;13449;49.374;8.584;2023-07-13T07:33:25;100577.59;;;21.64;49.42
24486;BME280;13449;49.374;8.584;2023-07-13T07:35:52;100581.59;;;21.90;51.44
24486;BME280;13449;49.374;8.584;2023-07-13T07:38:21;100566.34;;;22.05;49.51
24486;BME280;13449;49.374;8.584;2023-07-13T07:40:50;100573.13;;;22.22;50.37
24486;BME280;13449;49.374;8.584;2023-07-13T07:43:19;100566.38;;;22.26;47.70
24486;BME280;13449;49.374;8.584;2023-07-13T07:45:48;100565.56;;;22.26;48.64
24486;BME280;13449;49.374;8.584;2023-07-13T07:48:15;100568.03;;;22.49;49.60
24486;BME280;13449;49.374;8.584;2023-07-13T07:50:44;100550.13;;;22.56;45.18
24486;BME280;13449;49.374;8.584;2023-07-13T07:53:11;100552.44;;;22.37;46.66
24486;BME280;13449;49.374;8.584;2023-07-13T07:55:39;100557.06;;;22.44;45.96
24486;BME280;13449;49.374;8.584;2023-07-13T07:58:10;100560.50;;;22.59;45.91
24486;BME280;13449;49.374;8.584;2023-07-13T08:01:04;100563.81;;;22.82;46.22
24486;BME280;13449;49.374;8.584;2023-07-13T08:03:34;100570.31;;;22.94;47.00
24486;BME280;13449;49.374;8.584;2023-07-13T08:06:03;100568.84;;;23.20;46.36
24486;BME280;13449;49.374;8.584;2023-07-13T08:08:34;100573.81;;;23.23;46.85
24486;BME280;13449;49.374;8.584;2023-07-13T08:11:05;100556.25;;;23.27;44.90
24486;BME280;13449;49.374;8.584;2023-07-13T08:13:53;100549.81;;;23.21;43.17
24486;BME280;13449;49.374;8.584;2023-07-13T08:16:21;100552.00;;;23.39;43.72
24486;BME280;13449;49.374;8.584;2023-07-13T08:18:51;100568.56;;;23.49;46.07
24486;BME280;13449;49.374;8.584;2023-07-13T08:21:17;100569.06;;;23.59;45.36
24486;BME280;13449;49.374;8.584;2023-07-13T08:23:48;100565.56;;;23.66;46.13
24486;BME280;13449;49.374;8.584;2023-07-13T08:26:15;100560.84;;;23.68;45.38
24486;BME280;13449;49.374;8.584;2023-07-13T08:28:44;100551.34;;;23.72;44.65
24486;BME280;13449;49.374;8.584;2023-07-13T08:31:10;100547.63;;;23.73;42.84
24486;BME280;13449;49.374;8.584;2023-07-13T08:33:37;100564.69;;;24.00;45.98
24486;BME280;13449;49.374;8.584;2023-07-13T08:36:04;100553.78;;;23.67;42.53
24486;BME280;13449;49.374;8.584;2023-07-13T08:38:33;100567.13;;;23.88;45.33
24486;BME280;13449;49.374;8.584;2023-07-13T08:41:05;100546.06;;;24.05;43.21
24486;BME280;13449;49.374;8.584;2023-07-13T08:43:37;100542.69;;;23.83;42.09
24486;BME280;13449;49.374;8.584;2023-07-13T08:54:03;100559.50;;;24.05;44.22
24486;BME280;13449;49.374;8.584;2023-07-13T08:56:34;100561.28;;;24.32;45.24
24486;BME280;13449;49.374;8.584;2023-07-13T08:59:11;100560.25;;;24.53;45.12
24486;BME280;13449;49.374;8.584;2023-07-13T09:01:44;100557.56;;;24.66;44.73
24486;BME280;13449;49.374;8.584;2023-07-13T09:04:16;100550.72;;;24.57;43.54
24486;BME280;13449;49.374;8.584;2023-07-13T09:07:05;100536.63;;;24.68;41.25
24486;BME280;13449;49.374;8.584;2023-07-13T09:09:53;100550.72;;;24.70;44.14
24486;BME280;13449;49.374;8.584;2023-07-13T09:14:58;100546.72;;;24.20;43.81
24486;BME280;13449;49.374;8.584;2023-07-13T09:17:33;100539.94;;;24.57;44.86
24486;BME280;13449;49.374;8.584;2023-07-13T09:20:17;100539.50;;;24.87;43.62
24486;BME280;13449;49.374;8.584;2023-07-13T09:22:46;100548.25;;;25.02;45.23
24486;BME280;13449;49.374;8.584;2023-07-13T09:25:32;100545.25;;;25.36;45.02
24486;BME280;13449;49.374;8.584;2023-07-13T09:28:02;100535.75;;;25.27;40.71
24486;BME280;13449;49.374;8.584;2023-07-13T09:33:17;100522.97;;;24.63;40.67
24486;BME280;13449;49.374;8.584;2023-07-13T09:35:45;100544.50;;;25.03;42.96
24486;BME280;13449;49.374;8.584;2023-07-13T09:38:14;100537.41;;;25.28;42.04
24486;BME280;13449;49.374;8.584;2023-07-13T09:40:50;100536.47;;;25.61;42.83
24486;BME280;13449;49.374;8.584;2023-07-13T09:43:20;100527.28;;;25.11;39.62
24486;BME280;13449;49.374;8.584;2023-07-13T09:45:47;100524.19;;;24.94;41.26
24486;BME280;13449;49.374;8.584;2023-07-13T09:48:16;100532.06;;;24.95;42.47
24486;BME280;13449;49.374;8.584;2023-07-13T09:50:44;100540.34;;;24.94;42.44
24486;BME280;13449;49.374;8.584;2023-07-13T09:53:15;100520.06;;;24.32;40.28
24486;BME280;13449;49.374;8.584;2023-07-13T09:55:45;100532.47;;;24.33;42.42
24486;BME280;13449;49.374;8.584;2023-07-13T09:58:17;100526.25;;;24.39;42.43
24486;BME280;13449;49.374;8.584;2023-07-13T10:00:58;100540.28;;;24.28;44.78
24486;BME280;13449;49.374;8.584;2023-07-13T10:03:30;100537.41;;;24.23;42.25
24486;BME280;13449;49.374;8.584;2023-07-13T10:06:16;100544.00;;;24.07;45.44
24486;BME280;13449;49.374;8.584;2023-07-13T10:08:46;100530.78;;;24.18;43.30
24486;BME280;13449;49.374;8.584;2023-07-13T10:11:29;100536.97;;;24.06;44.77
24486;BME280;13449;49.374;8.584;2023-07-13T10:13:59;100548.38;;;24.14;44.48
24486;BME280;13449;49.374;8.584;2023-07-13T10:16:31;100540.72;;;24.25;44.52
24486;BME280;13449;49.374;8.584;2023-07-13T10:25:07;100535.16;;;24.59;44.90
24486;BME280;13449;49.374;8.584;2023-07-13T10:27:42;100526.06;;;25.00;40.25
24486;BME280;13449;49.374;8.584;2023-07-13T10:30:20;100536.00;;;25.13;43.25
24486;BME280;13449;49.374;8.584;2023-07-13T10:32:52;100519.22;;;24.84;42.38
24486;BME280;13449;49.374;8.584;2023-07-13T10:35:20;100520.88;;;24.72;42.69
24486;BME280;13449;49.374;8.584;2023-07-13T10:37:52;100521.28;;;24.75;42.04
24486;BME280;13449;49.374;8.584;2023-07-13T10:40:27;100525.84;;;24.95;44.02
24486;BME280;13449;49.374;8.584;2023-07-13T10:43:04;100514.84;;;24.90;39.98
24486;BME280;13449;49.374;8.584;2023-07-13T10:45:35;100512.16;;;24.76;40.97
24486;BME280;13449;49.374;8.584;2023-07-13T10:48:05;100526.66;;;24.75;43.25
24486;BME280;13449;49.374;8.584;2023-07-13T10:50:40;100525.00;;;24.61;41.76
24486;BME280;13449;49.374;8.584;2023-07-13T10:53:19;100503.28;;;24.56;38.33
24486;BME280;13449;49.374;8.584;2023-07-13T10:58:36;100520.47;;;24.82;40.51
24486;BME280;13449;49.374;8.584;2023-07-13T11:03:37;100510.88;;;25.25;40.61
24486;BME280;13449;49.374;8.584;2023-07-13T11:08:38;100514.81;;;25.16;40.20
24486;BME280;13449;49.374;8.584;2023-07-13T11:21:29;100499.75;;;24.36;37.24
24486;BME280;13449;49.374;8.584;2023-07-13T11:24:14;100501.44;;;24.50;38.48
24486;BME280;13449;49.374;8.584;2023-07-13T11:31:52;100502.63;;;24.94;40.09
24486;BME280;13449;49.374;8.584;2023-07-13T11:34:35;100500.16;;;24.79;39.81
24486;BME280;13449;49.374;8.584;2023-07-13T11:37:02;100488.94;;;24.95;36.63
24486;BME280;13449;49.374;8.584;2023-07-13T11:39:35;100499.97;;;25.52;39.47
24486;BME280;13449;49.374;8.584;2023-07-13T11:42:07;100500.75;;;25.72;38.50
24486;BME280;13449;49.374;8.584;2023-07-13T11:44:49;100504.97;;;25.48;38.36
24486;BME280;13449;49.374;8.584;2023-07-13T11:47:40;100480.72;;;25.86;35.07
24486;BME280;13449;49.374;8.584;2023-07-13T11:50:18;100496.22;;;26.29;38.61
24486;BME280;13449;49.374;8.584;2023-07-13T11:52:45;100499.34;;;26.58;37.75
24486;BME280;13449;49.374;8.584;2023-07-13T11:55:17;100476.03;;;26.38;34.62
24486;BME280;13449;49.374;8.584;2023-07-13T11:57:49;100452.41;;;26.27;32.26
24486;BME280;13449;49.374;8.584;2023-07-13T12:00:25;100469.19;;;26.79;34.18
24486;BME280;13449;49.374;8.584;2023-07-13T12:02:54;100473.03;;;27.44;34.05
24486;BME280;13449;49.374;8.584;2023-07-13T12:05:22;100472.03;;;27.75;34.29
24486;BME280;13449;49.374;8.584;2023-07-13T12:07:49;100470.13;;;28.06;34.21
24486;BME280;13449;49.374;8.584;2023-07-13T12:10:30;100472.75;;;28.13;33.36
24486;BME280;13449;49.374;8.584;2023-07-13T12:13:08;100451.31;;;27.51;31.03
24486;BME280;13449;49.374;8.584;2023-07-13T12:15:45;100468.00;;;27.66;33.71
24486;BME280;13449;49.374;8.584;2023-07-13T12:18:29;100456.41;;;27.11;31.80
24486;BME280;13449;49.374;8.584;2023-07-13T12:20:57;100465.16;;;26.70;31.58
24486;BME280;13449;49.374;8.584;2023-07-13T12:23:28;100476.53;;;26.53;32.37
24486;BME280;13449;49.374;8.584;2023-07-13T12:25:59;100478.09;;;26.61;34.74
24486;BME280;13449;49.374;8.584;2023-07-13T12:31:02;100478.78;;;26.56;33.86
24486;BME280;13449;49.374;8.584;2023-07-13T12:33:29;100470.41;;;26.33;33.92
24486;BME280;13449;49.374;8.584;2023-07-13T12:36:01;100460.16;;;26.17;32.67
24486;BME280;13449;49.374;8.584;2023-07-13T12:38:30;100483.56;;;25.98;36.02
24486;BME280;13449;49.374;8.584;2023-07-13T12:41:01;100464.16;;;25.83;33.43
24486;BME280;13449;49.374;8.584;2023-07-13T12:43:47;100473.25;;;25.88;34.70
24486;BME280;13449;49.374;8.584;2023-07-13T12:46:20;100475.28;;;25.93;35.67
24486;BME280;13449;49.374;8.584;2023-07-13T12:49:31;100489.53;;;26.81;36.94
24486;BME280;13449;49.374;8.584;2023-07-13T12:52:04;100481.31;;;26.51;33.40
24486;BME280;13449;49.374;8.584;2023-07-13T12:54:41;100481.28;;;26.26;35.35
24486;BME280;13449;49.374;8.584;2023-07-13T12:57:28;100495.09;;;26.12;36.23
24486;BME280;13449;49.374;8.584;2023-07-13T12:59:54;100490.22;;;25.95;35.17
24486;BME280;13449;49.374;8.584;2023-07-13T13:02:29;100494.03;;;25.81;36.30
24486;BME280;13449;49.374;8.584;2023-07-13T13:04:56;100500.31;;;25.75;35.64
24486;BME280;13449;49.374;8.584;2023-07-13T13:07:24;100504.03;;;25.67;35.97
24486;BME280;13449;49.374;8.584;2023-07-13T13:09:56;100493.31;;;25.61;34.99
24486;BME280;13449;49.374;8.584;2023-07-13T13:12:22;100503.97;;;25.43;35.90
24486;BME280;13449;49.374;8.584;2023-07-13T13:14:54;100505.00;;;25.42;36.70
24486;BME280;13449;49.374;8.584;2023-07-13T13:17:23;100501.63;;;25.53;37.30
24486;BME280;13449;49.374;8.584;2023-07-13T13:19:51;100498.91;;;25.59;35.92
24486;BME280;13449;49.374;8.584;2023-07-13T13:22:20;100509.41;;;25.81;37.46
24486;BME280;13449;49.374;8.584;2023-07-13T13:24:50;100511.97;;;26.01;37.37
24486;BME280;13449;49.374;8.584;2023-07-13T13:27:18;100510.03;;;26.14;36.31
24486;BME280;13449;49.374;8.584;2023-07-13T13:29:46;100486.47;;;25.96;32.93
24486;BME280;13449;49.374;8.584;2023-07-13T13:32:14;100503.72;;;25.95;36.71
24486;BME280;13449;49.374;8.584;2023-07-13T13:34:41;100512.13;;;26.12;36.80
24486;BME280;13449;49.374;8.584;2023-07-13T13:37:22;100516.22;;;26.21;38.10
24486;BME280;13449;49.374;8.584;2023-07-13T13:39:49;100498.75;;;26.24;34.82
24486;BME280;13449;49.374;8.584;2023-07-13T13:42:33;100496.75;;;26.13;34.87
24486;BME280;13449;49.374;8.584;2023-07-13T13:44:59;100512.19;;;26.06;37.78
24486;BME280;13449;49.374;8.584;2023-07-13T13:47:33;100510.47;;;26.11;36.98
24486;BME280;13449;49.374;8.584;2023-07-13T13:50:17;100502.75;;;26.46;34.88
24486;BME280;13449;49.374;8.584;2023-07-13T13:52:44;100506.56;;;26.39;36.68